sensor_id;sensor_type;location;lat;lon;timestamp;temperature;humidity
8422;DHT22;4248;48.196;10.924;2022-12-18T00:02:16;-3.10;65.70
8422;DHT22;4248;48.196;10.924;2022-12-18T00:04:41;-3.00;66.60
8422;DHT22;4248;48.196;10.924;2022-12-18T00:07:07;-3.00;65.30
8422;DHT22;4248;48.196;10.924;2022-12-18T00:09:33;-2.90;65.20
8422;DHT22;4248;48.196;10.924;2022-12-18T00:11:58;-2.90;65.00
8422;DHT22;4248;48.196;10.924;2022-12-18T00:14:24;-2.90;64.90
8422;DHT22;4248;48.196;10.924;2022-12-18T00:16:50;-2.80;64.90
8422;DHT22;4248;48.196;10.924;2022-12-18T00:19:15;-2.70;64.80
8422;DHT22;4248;48.196;10.924;2022-12-18T00:21:42;-2.80;64.80
8422;DHT22;4248;48.196;10.924;2022-12-18T00:24:09;-2.80;65.10
8422;DHT22;4248;48.196;10.924;2022-12-18T00:26:36;-2.80;65.40
8422;DHT22;4248;48.196;10.924;2022-12-18T00:29:11;-2.80;65.00
8422;DHT22;4248;48.196;10.924;2022-12-18T00:31:39;-2.80;65.00
8422;DHT22;4248;48.196;10.924;2022-12-18T00:34:04;-2.90;66.20
8422;DHT22;4248;48.196;10.924;2022-12-18T00:36:32;-2.80;65.00
8422;DHT22;4248;48.196;10.924;2022-12-18T00:39:00;-2.60;65.00
8422;DHT22;4248;48.196;10.924;2022-12-18T00:41:27;-2.60;64.70
8422;DHT22;4248;48.196;10.924;2022-12-18T00:44:13;-2.40;64.50
8422;DHT22;4248;48.196;10.924;2022-12-18T00:46:40;-2.40;64.10
8422;DHT22;4248;48.196;10.924;2022-12-18T00:49:06;-2.30;63.70
8422;DHT22;4248;48.196;10.924;2022-12-18T00:51:32;-2.30;63.50
8422;DHT22;4248;48.196;10.924;2022-12-18T00:53:58;-2.20;63.40
8422;DHT22;4248;48.196;10.924;2022-12-18T00:56:24;-2.20;63.30
8422;DHT22;4248;48.196;10.924;2022-12-18T00:58:50;-2.20;63.50
8422;DHT22;4248;48.196;10.924;2022-12-18T01:01:16;-2.30;63.70
8422;DHT22;4248;48.196;10.924;2022-12-18T01:03:42;-2.20;63.60
8422;DHT22;4248;48.196;10.924;2022-12-18T01:06:09;-2.20;63.60
8422;DHT22;4248;48.196;10.924;2022-12-18T01:08:37;-2.20;63.80
8422;DHT22;4248;48.196;10.924;2022-12-18T01:11:12;-2.30;63.20
8422;DHT22;4248;48.196;10.924;2022-12-18T01:13:39;-2.30;64.40
8422;DHT22;4248;48.196;10.924;2022-12-18T01:16:05;-2.40;64.80
8422;DHT22;4248;48.196;10.924;2022-12-18T01:18:31;-2.50;65.10
8422;DHT22;4248;48.196;10.924;2022-12-18T01:20:57;-2.60;64.60
8422;DHT22;4248;48.196;10.924;2022-12-18T01:23:22;-2.60;65.60
8422;DHT22;4248;48.196;10.924;2022-12-18T01:25:48;-2.60;65.80
8422;DHT22;4248;48.196;10.924;2022-12-18T01:28:14;-2.60;65.70
8422;DHT22;4248;48.196;10.924;2022-12-18T01:30:39;-2.50;65.60
8422;DHT22;4248;48.196;10.924;2022-12-18T01:33:05;-2.50;65.50
8422;DHT22;4248;48.196;10.924;2022-12-18T01:35:31;-2.50;65.30
8422;DHT22;4248;48.196;10.924;2022-12-18T01:37:57;-2.50;65.50
8422;DHT22;4248;48.196;10.924;2022-12-18T01:40:23;-2.50;65.70
8422;DHT22;4248;48.196;10.924;2022-12-18T01:42:52;-2.50;65.80
8422;DHT22;4248;48.196;10.924;2022-12-18T01:48:05;-2.60;65.80
8422;DHT22;4248;48.196;10.924;2022-12-18T01:50:38;-2.70;66.20
8422;DHT22;4248;48.196;10.924;2022-12-18T01:53:21;-2.70;66.60
8422;DHT22;4248;48.196;10.924;2022-12-18T01:55:53;-2.70;68.10
8422;DHT22;4248;48.196;10.924;2022-12-18T01:58:22;-2.70;67.00
8422;DHT22;4248;48.196;10.924;2022-12-18T02:00:49;-2.70;66.00
8422;DHT22;4248;48.196;10.924;2022-12-18T02:03:15;-2.70;67.00
8422;DHT22;4248;48.196;10.924;2022-12-18T02:06:05;-2.60;66.80
8422;DHT22;4248;48.196;10.924;2022-12-18T02:11:23;-2.50;66.30
8422;DHT22;4248;48.196;10.924;2022-12-18T02:17:05;-2.40;65.90
8422;DHT22;4248;48.196;10.924;2022-12-18T02:20:05;-2.40;65.70
8422;DHT22;4248;48.196;10.924;2022-12-18T02:22:47;-2.40;65.80
8422;DHT22;4248;48.196;10.924;2022-12-18T02:28:20;-2.40;65.80
8422;DHT22;4248;48.196;10.924;2022-12-18T02:30:49;-2.50;65.90
8422;DHT22;4248;48.196;10.924;2022-12-18T02:33:16;-2.40;65.90
8422;DHT22;4248;48.196;10.924;2022-12-18T02:35:44;-2.40;65.90
8422;DHT22;4248;48.196;10.924;2022-12-18T02:38:12;-2.40;65.80
8422;DHT22;4248;48.196;10.924;2022-12-18T02:40:38;-2.40;65.70
8422;DHT22;4248;48.196;10.924;2022-12-18T02:43:13;-2.50;65.90
8422;DHT22;4248;48.196;10.924;2022-12-18T02:45:54;-2.40;66.10
8422;DHT22;4248;48.196;10.924;2022-12-18T02:48:33;-2.40;66.00
8422;DHT22;4248;48.196;10.924;2022-12-18T02:51:08;-2.30;65.00
8422;DHT22;4248;48.196;10.924;2022-12-18T02:53:41;-2.30;65.90
8422;DHT22;4248;48.196;10.924;2022-12-18T02:56:26;-2.30;65.90
8422;DHT22;4248;48.196;10.924;2022-12-18T03:06:59;-2.50;66.20
8422;DHT22;4248;48.196;10.924;2022-12-18T03:09:32;-2.60;67.40
8422;DHT22;4248;48.196;10.924;2022-12-18T03:12:15;-2.60;66.30
8422;DHT22;4248;48.196;10.924;2022-12-18T03:14:56;-2.50;66.00
8422;DHT22;4248;48.196;10.924;2022-12-18T03:17:25;-2.40;66.00
8422;DHT22;4248;48.196;10.924;2022-12-18T03:19:53;-2.60;65.80
8422;DHT22;4248;48.196;10.924;2022-12-18T03:22:22;-2.60;66.10
8422;DHT22;4248;48.196;10.924;2022-12-18T03:24:49;-2.70;66.30
8422;DHT22;4248;48.196;10.924;2022-12-18T03:27:18;-2.80;66.50
8422;DHT22;4248;48.196;10.924;2022-12-18T03:29:53;-2.80;66.90
8422;DHT22;4248;48.196;10.924;2022-12-18T03:32:29;-2.80;66.50
8422;DHT22;4248;48.196;10.924;2022-12-18T03:34:59;-2.80;66.80
8422;DHT22;4248;48.196;10.924;2022-12-18T03:37:31;-2.90;66.80
8422;DHT22;4248;48.196;10.924;2022-12-18T03:39:57;-3.00;66.70
8422;DHT22;4248;48.196;10.924;2022-12-18T03:42:42;-2.90;66.80
8422;DHT22;4248;48.196;10.924;2022-12-18T03:45:26;-2.80;66.50
8422;DHT22;4248;48.196;10.924;2022-12-18T03:48:07;-2.80;64.80
8422;DHT22;4248;48.196;10.924;2022-12-18T03:50:56;-2.70;66.00
8422;DHT22;4248;48.196;10.924;2022-12-18T03:53:32;-2.80;65.80
8422;DHT22;4248;48.196;10.924;2022-12-18T03:56:00;-2.70;65.90
8422;DHT22;4248;48.196;10.924;2022-12-18T03:58:28;-2.80;66.00
8422;DHT22;4248;48.196;10.924;2022-12-18T04:00:57;-2.80;65.00
8422;DHT22;4248;48.196;10.924;2022-12-18T04:03:26;-2.70;66.00
8422;DHT22;4248;48.196;10.924;2022-12-18T04:05:55;-2.70;67.20
8422;DHT22;4248;48.196;10.924;2022-12-18T04:08:22;-2.80;65.90
8422;DHT22;4248;48.196;10.924;2022-12-18T04:10:48;-2.80;65.80
8422;DHT22;4248;48.196;10.924;2022-12-18T04:13:24;-2.80;65.90
8422;DHT22;4248;48.196;10.924;2022-12-18T04:15:53;-2.70;65.90
8422;DHT22;4248;48.196;10.924;2022-12-18T04:18:19;-2.60;65.80
8422;DHT22;4248;48.196;10.924;2022-12-18T04:20:45;-2.60;65.60
8422;DHT22;4248;48.196;10.924;2022-12-18T04:23:10;-2.70;65.80
8422;DHT22;4248;48.196;10.924;2022-12-18T04:25:36;-2.60;65.50
8422;DHT22;4248;48.196;10.924;2022-12-18T04:28:01;-2.50;65.30
8422;DHT22;4248;48.196;10.924;2022-12-18T04:30:27;-2.50;65.10
8422;DHT22;4248;48.196;10.924;2022-12-18T04:32:53;-2.50;65.30
8422;DHT22;4248;48.196;10.924;2022-12-18T04:35:18;-2.40;65.10
8422;DHT22;4248;48.196;10.924;2022-12-18T04:37:44;-2.40;65.00
8422;DHT22;4248;48.196;10.924;2022-12-18T04:40:10;-2.50;65.00
8422;DHT22;4248;48.196;10.924;2022-12-18T04:42:36;-2.60;65.10
8422;DHT22;4248;48.196;10.924;2022-12-18T04:45:01;-2.60;65.30
8422;DHT22;4248;48.196;10.924;2022-12-18T04:47:27;-2.50;65.20
8422;DHT22;4248;48.196;10.924;2022-12-18T04:49:52;-2.40;65.10
8422;DHT22;4248;48.196;10.924;2022-12-18T04:52:18;-2.50;65.00
8422;DHT22;4248;48.196;10.924;2022-12-18T04:54:44;-2.50;65.10
8422;DHT22;4248;48.196;10.924;2022-12-18T04:57:09;-2.40;65.00
8422;DHT22;4248;48.196;10.924;2022-12-18T04:59:35;-2.40;65.00
8422;DHT22;4248;48.196;10.924;2022-12-18T05:02:01;-2.40;65.10
8422;DHT22;4248;48.196;10.924;2022-12-18T05:04:26;-2.50;65.40
8422;DHT22;4248;48.196;10.924;2022-12-18T05:06:52;-2.50;65.30
8422;DHT22;4248;48.196;10.924;2022-12-18T05:09:17;-2.50;65.40
8422;DHT22;4248;48.196;10.924;2022-12-18T05:11:43;-2.50;65.30
8422;DHT22;4248;48.196;10.924;2022-12-18T05:14:08;-2.40;65.20
8422;DHT22;4248;48.196;10.924;2022-12-18T05:16:34;-2.30;65.00
8422;DHT22;4248;48.196;10.924;2022-12-18T05:19:00;-2.30;64.90
8422;DHT22;4248;48.196;10.924;2022-12-18T05:21:25;-2.40;65.10
8422;DHT22;4248;48.196;10.924;2022-12-18T05:23:51;-2.40;65.10
8422;DHT22;4248;48.196;10.924;2022-12-18T05:26:18;-2.40;65.20
8422;DHT22;4248;48.196;10.924;2022-12-18T05:28:43;-2.40;65.30
8422;DHT22;4248;48.196;10.924;2022-12-18T05:31:09;-2.60;64.90
8422;DHT22;4248;48.196;10.924;2022-12-18T05:33:35;-2.60;65.90
8422;DHT22;4248;48.196;10.924;2022-12-18T05:36:03;-2.50;66.00
8422;DHT22;4248;48.196;10.924;2022-12-18T05:38:31;-2.70;66.00
8422;DHT22;4248;48.196;10.924;2022-12-18T05:40:57;-2.80;65.50
8422;DHT22;4248;48.196;10.924;2022-12-18T05:43:24;-2.80;66.50
8422;DHT22;4248;48.196;10.924;2022-12-18T05:45:50;-2.80;66.30
8422;DHT22;4248;48.196;10.924;2022-12-18T05:48:17;-2.80;65.90
8422;DHT22;4248;48.196;10.924;2022-12-18T05:50:44;-2.80;65.70
8422;DHT22;4248;48.196;10.924;2022-12-18T05:53:11;-2.90;65.70
8422;DHT22;4248;48.196;10.924;2022-12-18T05:55:39;-2.80;66.00
8422;DHT22;4248;48.196;10.924;2022-12-18T05:58:06;-2.80;65.70
8422;DHT22;4248;48.196;10.924;2022-12-18T06:00:34;-2.80;65.50
8422;DHT22;4248;48.196;10.924;2022-12-18T06:03:00;-2.80;65.40
8422;DHT22;4248;48.196;10.924;2022-12-18T06:05:26;-2.80;65.50
8422;DHT22;4248;48.196;10.924;2022-12-18T06:07:52;-2.60;65.40
8422;DHT22;4248;48.196;10.924;2022-12-18T06:10:18;-2.70;65.20
8422;DHT22;4248;48.196;10.924;2022-12-18T06:12:44;-2.70;65.30
8422;DHT22;4248;48.196;10.924;2022-12-18T06:15:09;-2.70;65.20
8422;DHT22;4248;48.196;10.924;2022-12-18T06:17:36;-2.60;65.00
8422;DHT22;4248;48.196;10.924;2022-12-18T06:20:03;-2.60;65.00
8422;DHT22;4248;48.196;10.924;2022-12-18T06:22:31;-2.60;65.00
8422;DHT22;4248;48.196;10.924;2022-12-18T06:24:57;-2.50;64.80
8422;DHT22;4248;48.196;10.924;2022-12-18T06:27:23;-2.40;64.60
8422;DHT22;4248;48.196;10.924;2022-12-18T06:29:48;-2.50;64.80
8422;DHT22;4248;48.196;10.924;2022-12-18T06:32:14;-2.50;64.70
8422;DHT22;4248;48.196;10.924;2022-12-18T06:34:40;-2.50;64.90
8422;DHT22;4248;48.196;10.924;2022-12-18T06:37:05;-2.50;65.00
8422;DHT22;4248;48.196;10.924;2022-12-18T06:39:31;-2.60;64.80
8422;DHT22;4248;48.196;10.924;2022-12-18T06:41:57;-2.60;64.90
8422;DHT22;4248;48.196;10.924;2022-12-18T06:44:22;-2.70;65.40
8422;DHT22;4248;48.196;10.924;2022-12-18T06:46:48;-2.80;65.40
8422;DHT22;4248;48.196;10.924;2022-12-18T06:49:14;-2.80;65.80
8422;DHT22;4248;48.196;10.924;2022-12-18T06:51:41;-2.80;65.70
8422;DHT22;4248;48.196;10.924;2022-12-18T06:54:07;-2.70;65.60
8422;DHT22;4248;48.196;10.924;2022-12-18T06:56:33;-3.00;65.80
8422;DHT22;4248;48.196;10.924;2022-12-18T06:58:58;-2.90;66.20
8422;DHT22;4248;48.196;10.924;2022-12-18T07:01:24;-3.00;66.10
8422;DHT22;4248;48.196;10.924;2022-12-18T07:03:54;-3.00;66.20
8422;DHT22;4248;48.196;10.924;2022-12-18T07:06:23;-2.90;65.80
8422;DHT22;4248;48.196;10.924;2022-12-18T07:08:50;-2.80;65.70
8422;DHT22;4248;48.196;10.924;2022-12-18T07:11:17;-2.80;65.60
8422;DHT22;4248;48.196;10.924;2022-12-18T07:13:43;-2.80;65.40
8422;DHT22;4248;48.196;10.924;2022-12-18T07:16:14;-2.30;65.60
8422;DHT22;4248;48.196;10.924;2022-12-18T07:18:40;-2.70;64.90
8422;DHT22;4248;48.196;10.924;2022-12-18T07:21:10;-2.70;63.50
8422;DHT22;4248;48.196;10.924;2022-12-18T07:23:36;-2.70;64.60
8422;DHT22;4248;48.196;10.924;2022-12-18T07:26:04;-2.80;64.80
8422;DHT22;4248;48.196;10.924;2022-12-18T07:28:31;-2.50;65.30
8422;DHT22;4248;48.196;10.924;2022-12-18T07:30:56;-2.70;64.10
8422;DHT22;4248;48.196;10.924;2022-12-18T07:33:22;-2.70;65.20
8422;DHT22;4248;48.196;10.924;2022-12-18T07:35:48;-2.60;65.00
8422;DHT22;4248;48.196;10.924;2022-12-18T07:38:13;-2.60;64.70
8422;DHT22;4248;48.196;10.924;2022-12-18T07:40:39;-2.60;64.60
8422;DHT22;4248;48.196;10.924;2022-12-18T07:43:04;-2.50;64.50
8422;DHT22;4248;48.196;10.924;2022-12-18T07:45:30;-2.50;64.40
8422;DHT22;4248;48.196;10.924;2022-12-18T07:47:55;-2.50;64.30
8422;DHT22;4248;48.196;10.924;2022-12-18T07:50:21;-2.40;64.30
8422;DHT22;4248;48.196;10.924;2022-12-18T07:52:47;-2.30;65.20
8422;DHT22;4248;48.196;10.924;2022-12-18T07:55:12;-2.30;64.00
8422;DHT22;4248;48.196;10.924;2022-12-18T07:57:38;-2.30;63.80
8422;DHT22;4248;48.196;10.924;2022-12-18T08:00:04;-2.20;63.60
8422;DHT22;4248;48.196;10.924;2022-12-18T08:02:31;-2.10;63.50
8422;DHT22;4248;48.196;10.924;2022-12-18T08:04:57;-2.10;63.30
8422;DHT22;4248;48.196;10.924;2022-12-18T08:07:23;-2.00;63.20
8422;DHT22;4248;48.196;10.924;2022-12-18T08:09:48;-1.90;62.90
8422;DHT22;4248;48.196;10.924;2022-12-18T08:12:14;-1.80;62.90
8422;DHT22;4248;48.196;10.924;2022-12-18T08:14:40;-1.90;63.00
8422;DHT22;4248;48.196;10.924;2022-12-18T08:17:05;-1.80;63.00
8422;DHT22;4248;48.196;10.924;2022-12-18T08:19:31;-1.80;63.00
8422;DHT22;4248;48.196;10.924;2022-12-18T08:21:56;-1.80;62.70
8422;DHT22;4248;48.196;10.924;2022-12-18T08:24:22;-1.70;62.70
8422;DHT22;4248;48.196;10.924;2022-12-18T08:26:48;-1.50;62.40
8422;DHT22;4248;48.196;10.924;2022-12-18T08:29:13;-1.70;61.30
8422;DHT22;4248;48.196;10.924;2022-12-18T08:31:39;-1.70;62.50
8422;DHT22;4248;48.196;10.924;2022-12-18T08:34:04;-1.70;62.40
8422;DHT22;4248;48.196;10.924;2022-12-18T08:36:30;-1.60;62.10
8422;DHT22;4248;48.196;10.924;2022-12-18T08:38:56;-1.60;61.90
8422;DHT22;4248;48.196;10.924;2022-12-18T08:41:22;-1.50;62.40
8422;DHT22;4248;48.196;10.924;2022-12-18T08:43:48;-1.80;62.50
8422;DHT22;4248;48.196;10.924;2022-12-18T08:46:35;-1.70;62.90
8422;DHT22;4248;48.196;10.924;2022-12-18T08:49:02;-1.80;61.90
8422;DHT22;4248;48.196;10.924;2022-12-18T08:51:28;-1.70;63.20
8422;DHT22;4248;48.196;10.924;2022-12-18T08:53:54;-1.40;62.60
8422;DHT22;4248;48.196;10.924;2022-12-18T08:56:19;-1.30;62.30
8422;DHT22;4248;48.196;10.924;2022-12-18T08:58:45;-1.10;61.60
8422;DHT22;4248;48.196;10.924;2022-12-18T09:01:11;-0.90;60.10
8422;DHT22;4248;48.196;10.924;2022-12-18T09:03:38;-0.90;61.00
8422;DHT22;4248;48.196;10.924;2022-12-18T09:06:04;-1.00;61.10
8422;DHT22;4248;48.196;10.924;2022-12-18T09:08:29;-1.20;61.50
8422;DHT22;4248;48.196;10.924;2022-12-18T09:10:56;-1.30;61.10
8422;DHT22;4248;48.196;10.924;2022-12-18T09:13:22;-1.30;62.20
8422;DHT22;4248;48.196;10.924;2022-12-18T09:15:50;-1.30;62.30
8422;DHT22;4248;48.196;10.924;2022-12-18T09:18:16;-1.20;62.40
8422;DHT22;4248;48.196;10.924;2022-12-18T09:20:42;-1.30;62.50
8422;DHT22;4248;48.196;10.924;2022-12-18T09:23:09;-1.30;62.40
8422;DHT22;4248;48.196;10.924;2022-12-18T09:25:35;-1.30;62.50
8422;DHT22;4248;48.196;10.924;2022-12-18T09:28:12;-1.20;61.40
8422;DHT22;4248;48.196;10.924;2022-12-18T09:30:39;-1.20;61.10
8422;DHT22;4248;48.196;10.924;2022-12-18T09:33:05;-1.20;61.20
8422;DHT22;4248;48.196;10.924;2022-12-18T09:35:30;-1.20;61.10
8422;DHT22;4248;48.196;10.924;2022-12-18T09:37:56;-1.30;61.30
8422;DHT22;4248;48.196;10.924;2022-12-18T09:40:25;-1.30;61.30
8422;DHT22;4248;48.196;10.924;2022-12-18T09:42:57;-1.40;60.90
8422;DHT22;4248;48.196;10.924;2022-12-18T09:45:24;-1.30;60.60
8422;DHT22;4248;48.196;10.924;2022-12-18T09:47:52;-1.10;60.30
8422;DHT22;4248;48.196;10.924;2022-12-18T09:50:32;-1.20;59.70
8422;DHT22;4248;48.196;10.924;2022-12-18T09:53:04;-1.20;60.20
8422;DHT22;4248;48.196;10.924;2022-12-18T09:55:37;-1.00;59.90
8422;DHT22;4248;48.196;10.924;2022-12-18T10:00:53;-1.10;59.50
8422;DHT22;4248;48.196;10.924;2022-12-18T10:03:19;-1.00;59.70
8422;DHT22;4248;48.196;10.924;2022-12-18T10:27:26;-0.20;57.80
8422;DHT22;4248;48.196;10.924;2022-12-18T10:29:53;0.10;57.00
8422;DHT22;4248;48.196;10.924;2022-12-18T10:32:23;0.30;57.20
8422;DHT22;4248;48.196;10.924;2022-12-18T10:34:51;0.30;56.20
8422;DHT22;4248;48.196;10.924;2022-12-18T10:37:20;0.40;55.70
8422;DHT22;4248;48.196;10.924;2022-12-18T10:40:14;0.40;55.70
8422;DHT22;4248;48.196;10.924;2022-12-18T10:42:41;0.50;55.20
8422;DHT22;4248;48.196;10.924;2022-12-18T10:45:13;0.50;54.80
8422;DHT22;4248;48.196;10.924;2022-12-18T10:47:47;0.70;54.80
8422;DHT22;4248;48.196;10.924;2022-12-18T10:50:30;0.90;53.90
8422;DHT22;4248;48.196;10.924;2022-12-18T10:52:59;0.80;53.80
8422;DHT22;4248;48.196;10.924;2022-12-18T10:55:38;0.90;53.70
8422;DHT22;4248;48.196;10.924;2022-12-18T10:58:24;0.90;53.20
8422;DHT22;4248;48.196;10.924;2022-12-18T11:01:17;0.70;53.00
8422;DHT22;4248;48.196;10.924;2022-12-18T11:06:15;0.70;53.30
8422;DHT22;4248;48.196;10.924;2022-12-18T11:08:43;0.60;53.80
8422;DHT22;4248;48.196;10.924;2022-12-18T11:11:23;0.80;52.60
8422;DHT22;4248;48.196;10.924;2022-12-18T11:14:19;0.80;53.40
8422;DHT22;4248;48.196;10.924;2022-12-18T11:16:48;0.90;53.40
8422;DHT22;4248;48.196;10.924;2022-12-18T11:19:37;1.00;53.00
8422;DHT22;4248;48.196;10.924;2022-12-18T11:22:30;1.10;52.90
8422;DHT22;4248;48.196;10.924;2022-12-18T11:25:18;1.20;52.60
8422;DHT22;4248;48.196;10.924;2022-12-18T11:27:55;1.00;52.40
8422;DHT22;4248;48.196;10.924;2022-12-18T11:30:34;1.00;52.90
8422;DHT22;4248;48.196;10.924;2022-12-18T11:33:09;1.00;53.30
8422;DHT22;4248;48.196;10.924;2022-12-18T11:35:52;1.20;52.90
8422;DHT22;4248;48.196;10.924;2022-12-18T11:38:35;1.30;52.70
8422;DHT22;4248;48.196;10.924;2022-12-18T11:44:13;0.80;53.50
8422;DHT22;4248;48.196;10.924;2022-12-18T11:46:47;0.70;53.70
8422;DHT22;4248;48.196;10.924;2022-12-18T11:52:09;0.80;53.60
8422;DHT22;4248;48.196;10.924;2022-12-18T11:54:35;0.80;53.30
8422;DHT22;4248;48.196;10.924;2022-12-18T11:57:42;0.90;53.10
8422;DHT22;4248;48.196;10.924;2022-12-18T12:00:18;0.90;52.90
8422;DHT22;4248;48.196;10.924;2022-12-18T12:05:40;0.60;52.70
8422;DHT22;4248;48.196;10.924;2022-12-18T12:11:11;0.50;53.20
8422;DHT22;4248;48.196;10.924;2022-12-18T12:16:42;0.60;53.30
8422;DHT22;4248;48.196;10.924;2022-12-18T12:19:45;0.60;53.20
8422;DHT22;4248;48.196;10.924;2022-12-18T12:22:41;0.40;53.40
8422;DHT22;4248;48.196;10.924;2022-12-18T12:25:49;0.60;53.10
8422;DHT22;4248;48.196;10.924;2022-12-18T12:28:37;0.80;52.70
8422;DHT22;4248;48.196;10.924;2022-12-18T12:31:39;0.70;52.80
8422;DHT22;4248;48.196;10.924;2022-12-18T12:34:22;0.50;52.70
8422;DHT22;4248;48.196;10.924;2022-12-18T12:39:39;0.00;54.20
8422;DHT22;4248;48.196;10.924;2022-12-18T12:42:15;0.10;54.30
8422;DHT22;4248;48.196;10.924;2022-12-18T12:45:05;0.50;53.90
8422;DHT22;4248;48.196;10.924;2022-12-18T12:47:35;1.00;53.10
8422;DHT22;4248;48.196;10.924;2022-12-18T12:50:06;0.80;53.00
8422;DHT22;4248;48.196;10.924;2022-12-18T12:52:43;0.80;53.10
8422;DHT22;4248;48.196;10.924;2022-12-18T12:55:28;0.90;53.00
8422;DHT22;4248;48.196;10.924;2022-12-18T12:57:56;0.70;51.60
8422;DHT22;4248;48.196;10.924;2022-12-18T13:00:23;0.50;51.90
8422;DHT22;4248;48.196;10.924;2022-12-18T13:03:15;0.40;52.20
8422;DHT22;4248;48.196;10.924;2022-12-18T13:06:04;0.30;52.40
8422;DHT22;4248;48.196;10.924;2022-12-18T13:08:58;0.10;52.80
8422;DHT22;4248;48.196;10.924;2022-12-18T13:11:31;-0.20;53.70
8422;DHT22;4248;48.196;10.924;2022-12-18T13:14:26;-0.30;54.00
8422;DHT22;4248;48.196;10.924;2022-12-18T13:20:11;0.00;53.00
8422;DHT22;4248;48.196;10.924;2022-12-18T13:22:43;-0.10;52.70
8422;DHT22;4248;48.196;10.924;2022-12-18T13:25:37;0.00;52.80
8422;DHT22;4248;48.196;10.924;2022-12-18T13:36:02;-0.50;54.00
8422;DHT22;4248;48.196;10.924;2022-12-18T13:38:36;-0.40;53.90
8422;DHT22;4248;48.196;10.924;2022-12-18T13:43:48;-0.50;54.00
8422;DHT22;4248;48.196;10.924;2022-12-18T13:51:17;-0.80;54.70
8422;DHT22;4248;48.196;10.924;2022-12-18T13:53:50;-0.80;54.80
8422;DHT22;4248;48.196;10.924;2022-12-18T13:56:17;-0.70;54.50
8422;DHT22;4248;48.196;10.924;2022-12-18T13:58:43;-0.70;54.10
8422;DHT22;4248;48.196;10.924;2022-12-18T14:01:24;-1.00;53.70
8422;DHT22;4248;48.196;10.924;2022-12-18T14:04:08;-1.00;54.60
8422;DHT22;4248;48.196;10.924;2022-12-18T14:06:34;-0.90;54.70
8422;DHT22;4248;48.196;10.924;2022-12-18T14:09:00;-0.90;54.40
8422;DHT22;4248;48.196;10.924;2022-12-18T14:11:27;-0.70;54.30
8422;DHT22;4248;48.196;10.924;2022-12-18T14:13:53;-0.60;53.80
8422;DHT22;4248;48.196;10.924;2022-12-18T14:16:19;-0.60;53.50
8422;DHT22;4248;48.196;10.924;2022-12-18T14:18:53;-0.50;53.80
8422;DHT22;4248;48.196;10.924;2022-12-18T14:21:28;-0.80;53.90
8422;DHT22;4248;48.196;10.924;2022-12-18T14:24:16;-0.90;54.40
8422;DHT22;4248;48.196;10.924;2022-12-18T14:26:42;-1.00;55.00
8422;DHT22;4248;48.196;10.924;2022-12-18T14:29:20;-1.20;55.10
8422;DHT22;4248;48.196;10.924;2022-12-18T14:31:46;-1.30;55.50
8422;DHT22;4248;48.196;10.924;2022-12-18T14:34:16;-1.30;55.80
8422;DHT22;4248;48.196;10.924;2022-12-18T14:36:51;-1.40;55.70
8422;DHT22;4248;48.196;10.924;2022-12-18T14:39:18;-1.60;55.50
8422;DHT22;4248;48.196;10.924;2022-12-18T14:41:43;-1.50;56.10
8422;DHT22;4248;48.196;10.924;2022-12-18T14:44:12;-1.50;55.60
8422;DHT22;4248;48.196;10.924;2022-12-18T14:46:39;-1.50;55.70
8422;DHT22;4248;48.196;10.924;2022-12-18T14:49:32;-1.60;55.70
8422;DHT22;4248;48.196;10.924;2022-12-18T14:52:00;-1.70;55.90
8422;DHT22;4248;48.196;10.924;2022-12-18T14:54:27;-1.80;56.30
8422;DHT22;4248;48.196;10.924;2022-12-18T14:59:27;-1.90;56.90
8422;DHT22;4248;48.196;10.924;2022-12-18T15:02:44;-1.90;57.10
8422;DHT22;4248;48.196;10.924;2022-12-18T15:05:05;-2.00;57.30
8422;DHT22;4248;48.196;10.924;2022-12-18T15:07:45;-2.00;57.20
8422;DHT22;4248;48.196;10.924;2022-12-18T15:10:18;-2.00;57.20
8422;DHT22;4248;48.196;10.924;2022-12-18T15:13:05;-2.10;57.20
8422;DHT22;4248;48.196;10.924;2022-12-18T15:20:56;-2.00;57.20
8422;DHT22;4248;48.196;10.924;2022-12-18T15:26:11;-2.00;56.80
8422;DHT22;4248;48.196;10.924;2022-12-18T15:28:45;-2.00;56.90
8422;DHT22;4248;48.196;10.924;2022-12-18T15:36:13;-2.20;57.80
8422;DHT22;4248;48.196;10.924;2022-12-18T15:38:39;-2.10;57.70
8422;DHT22;4248;48.196;10.924;2022-12-18T15:41:05;-2.10;57.50
8422;DHT22;4248;48.196;10.924;2022-12-18T15:43:31;-2.00;57.50
8422;DHT22;4248;48.196;10.924;2022-12-18T15:46:04;-2.00;57.40
8422;DHT22;4248;48.196;10.924;2022-12-18T15:48:33;-2.10;57.70
8422;DHT22;4248;48.196;10.924;2022-12-18T15:50:59;-2.10;57.60
8422;DHT22;4248;48.196;10.924;2022-12-18T15:53:29;-2.20;57.80
8422;DHT22;4248;48.196;10.924;2022-12-18T15:55:55;-2.10;57.80
8422;DHT22;4248;48.196;10.924;2022-12-18T15:58:39;-2.10;57.90
8422;DHT22;4248;48.196;10.924;2022-12-18T16:01:05;-2.20;57.30
8422;DHT22;4248;48.196;10.924;2022-12-18T16:03:32;-2.30;58.30
8422;DHT22;4248;48.196;10.924;2022-12-18T16:05:59;-2.20;58.50
8422;DHT22;4248;48.196;10.924;2022-12-18T16:08:30;-2.30;58.50
8422;DHT22;4248;48.196;10.924;2022-12-18T16:10:56;-2.20;58.40
8422;DHT22;4248;48.196;10.924;2022-12-18T16:13:22;-2.20;58.40
8422;DHT22;4248;48.196;10.924;2022-12-18T16:15:48;-2.30;58.70
8422;DHT22;4248;48.196;10.924;2022-12-18T16:18:14;-2.40;59.30
8422;DHT22;4248;48.196;10.924;2022-12-18T16:20:40;-2.40;59.10
8422;DHT22;4248;48.196;10.924;2022-12-18T16:23:06;-2.30;59.20
8422;DHT22;4248;48.196;10.924;2022-12-18T16:25:31;-2.30;59.10
8422;DHT22;4248;48.196;10.924;2022-12-18T16:27:57;-2.30;58.90
8422;DHT22;4248;48.196;10.924;2022-12-18T16:30:25;-2.20;58.80
8422;DHT22;4248;48.196;10.924;2022-12-18T16:32:56;-2.30;58.90
8422;DHT22;4248;48.196;10.924;2022-12-18T16:35:22;-2.30;59.30
8422;DHT22;4248;48.196;10.924;2022-12-18T16:37:47;-2.30;59.50
8422;DHT22;4248;48.196;10.924;2022-12-18T16:40:15;-2.30;59.30
8422;DHT22;4248;48.196;10.924;2022-12-18T16:42:43;-2.20;59.00
8422;DHT22;4248;48.196;10.924;2022-12-18T16:45:12;-2.10;58.70
8422;DHT22;4248;48.196;10.924;2022-12-18T16:47:38;-2.10;58.80
8422;DHT22;4248;48.196;10.924;2022-12-18T16:50:04;-2.10;59.10
8422;DHT22;4248;48.196;10.924;2022-12-18T16:52:30;-2.10;59.10
8422;DHT22;4248;48.196;10.924;2022-12-18T16:54:56;-2.10;59.10
8422;DHT22;4248;48.196;10.924;2022-12-18T16:57:22;-2.10;59.20
8422;DHT22;4248;48.196;10.924;2022-12-18T16:59:48;-2.10;59.10
8422;DHT22;4248;48.196;10.924;2022-12-18T17:02:19;-2.10;59.10
8422;DHT22;4248;48.196;10.924;2022-12-18T17:04:46;-2.10;59.00
8422;DHT22;4248;48.196;10.924;2022-12-18T17:07:12;-2.20;59.40
8422;DHT22;4248;48.196;10.924;2022-12-18T17:09:38;-2.30;59.80
8422;DHT22;4248;48.196;10.924;2022-12-18T17:12:04;-2.20;59.90
8422;DHT22;4248;48.196;10.924;2022-12-18T17:14:31;-2.20;59.90
8422;DHT22;4248;48.196;10.924;2022-12-18T17:16:57;-2.10;59.70
8422;DHT22;4248;48.196;10.924;2022-12-18T17:19:24;-2.00;59.50
8422;DHT22;4248;48.196;10.924;2022-12-18T17:21:50;-2.10;59.40
8422;DHT22;4248;48.196;10.924;2022-12-18T17:24:16;-2.00;59.60
8422;DHT22;4248;48.196;10.924;2022-12-18T17:26:42;-2.00;59.40
8422;DHT22;4248;48.196;10.924;2022-12-18T17:29:12;-2.00;59.60
8422;DHT22;4248;48.196;10.924;2022-12-18T17:31:38;-2.10;59.90
8422;DHT22;4248;48.196;10.924;2022-12-18T17:34:04;-2.20;60.00
8422;DHT22;4248;48.196;10.924;2022-12-18T17:36:30;-2.20;60.00
8422;DHT22;4248;48.196;10.924;2022-12-18T17:38:58;-2.10;60.10
8422;DHT22;4248;48.196;10.924;2022-12-18T17:41:25;-2.10;60.10
8422;DHT22;4248;48.196;10.924;2022-12-18T17:43:53;-2.10;60.10
8422;DHT22;4248;48.196;10.924;2022-12-18T17:46:19;-2.10;60.20